Time;durP1;ratioP1;P1;durP2;ratioP2;P2;SDS_P1;SDS_P2;PMS_P1;PMS_P2;Temp;Humidity;BMP_temperature;BMP_pressure;BME280_temperature;BME280_humidity;BME280_pressure;Samples;Min_cycle;Max_cycle;Signal;HPM_P1;HPM_P2
2023/04/01 00:00:32;;;;;;;1999.90;999.90;;;9.20;99.90;;;;;;5034591;28;20056;-75
2023/04/01 00:02:58;;;;;;;1999.90;999.90;;;9.20;99.90;;;;;;5034447;28;20053;-75
2023/04/01 00:05:26;;;;;;;1999.90;999.90;;;9.20;99.90;;;;;;5032769;28;20480;-76
2023/04/01 00:07:52;;;;;;;1999.90;999.90;;;9.20;99.90;;;;;;5034302;28;20034;-76
2023/04/01 00:10:17;;;;;;;1999.90;999.90;;;9.20;99.90;;;;;;5034444;28;20045;-75
2023/04/01 00:12:43;;;;;;;1999.90;999.90;;;9.20;99.90;;;;;;5034159;28;20034;-75
2023/04/01 00:15:11;;;;;;;1999.90;999.90;;;9.20;99.90;;;;;;5033850;28;20041;-74
2023/04/01 00:17:37;;;;;;;1999.90;999.90;;;9.10;99.90;;;;;;5037690;28;20034;-74
2023/04/01 00:20:03;;;;;;;1999.90;999.90;;;9.10;99.90;;;;;;5037835;28;20037;-74
2023/04/01 00:22:29;;;;;;;1999.90;999.90;;;9.10;99.90;;;;;;5037286;28;20132;-74
2023/04/01 00:24:54;;;;;;;1999.90;999.90;;;9.20;99.90;;;;;;5036007;28;20614;-74
2023/04/01 00:27:20;;;;;;;1999.90;999.90;;;9.10;99.90;;;;;;5037411;28;20518;-74
2023/04/01 00:29:47;;;;;;;1999.90;999.90;;;9.10;99.90;;;;;;5037572;28;20065;-74
2023/04/01 00:32:13;;;;;;;1999.90;999.90;;;9.10;99.90;;;;;;5037626;28;20033;-74
2023/04/01 00:34:39;;;;;;;1999.90;999.90;;;9.10;99.90;;;;;;5037153;28;20034;-74
2023/04/01 00:37:05;;;;;;;1999.90;999.90;;;9.20;99.90;;;;;;5037743;28;20030;-74
2023/04/01 00:39:32;;;;;;;1999.90;999.90;;;9.10;99.90;;;;;;5037045;28;20041;-75
2023/04/01 00:41:58;;;;;;;1999.90;999.90;;;9.20;99.90;;;;;;5035884;28;20096;-74
2023/04/01 00:44:27;;;;;;;1999.90;999.90;;;9.30;99.90;;;;;;5037078;28;20050;-74
2023/04/01 00:46:53;;;;;;;1999.90;999.90;;;9.30;99.90;;;;;;5037220;28;20096;-74
2023/04/01 00:49:21;;;;;;;1999.90;999.90;;;9.40;99.90;;;;;;5035533;28;20076;-74
2023/04/01 00:51:50;;;;;;;1999.90;999.90;;;9.50;99.90;;;;;;5035622;28;20091;-74
2023/04/01 00:54:18;;;;;;;1999.90;999.90;;;9.50;99.90;;;;;;5036833;28;20045;-74
2023/04/01 00:56:58;;;;;;;1999.90;999.90;;;9.40;99.90;;;;;;5037040;28;20412;-75
2023/04/01 00:59:41;;;;;;;1999.90;999.90;;;9.50;99.90;;;;;;5036924;28;20095;-74
2023/04/01 01:02:09;;;;;;;1999.90;999.90;;;9.50;99.90;;;;;;5037063;28;20108;-74
2023/04/01 01:04:35;;;;;;;1999.90;999.90;;;9.40;99.90;;;;;;5036296;28;20045;-74
2023/04/01 01:07:13;;;;;;;1999.90;999.90;;;9.40;99.90;;;;;;5036957;28;20034;-74
2023/04/01 01:09:49;;;;;;;1999.90;999.90;;;9.40;99.90;;;;;;5037121;28;20034;-74
2023/04/01 01:12:21;;;;;;;1999.90;999.90;;;9.50;99.90;;;;;;5036998;28;20117;-74
2023/04/01 01:15:08;;;;;;;1999.90;999.90;;;9.50;99.90;;;;;;5036463;28;20038;-74
2023/04/01 01:17:47;;;;;;;1999.90;999.90;;;9.60;99.90;;;;;;5032524;28;20030;-74
2023/04/01 01:20:20;;;;;;;1999.90;999.90;;;9.50;99.90;;;;;;5017171;28;20034;-74
2023/04/01 01:22:56;;;;;;;1999.90;999.90;;;9.50;99.90;;;;;;5016184;28;20524;-74
2023/04/01 01:25:33;;;;;;;1999.90;999.90;;;9.50;99.90;;;;;;5016307;28;20034;-74
2023/04/01 01:28:28;;;;;;;1999.90;999.90;;;9.50;99.90;;;;;;5015527;28;20444;-74
2023/04/01 01:31:22;;;;;;;1999.90;999.90;;;9.50;99.90;;;;;;5016612;28;20090;-74
2023/04/01 01:33:53;;;;;;;1999.90;999.90;;;9.60;99.90;;;;;;5016756;28;20058;-74
2023/04/01 01:36:20;;;;;;;1999.90;999.90;;;9.60;99.90;;;;;;5016432;28;20034;-74
2023/04/01 01:38:49;;;;;;;1999.90;999.90;;;9.70;99.90;;;;;;5014448;28;20034;-74
2023/04/01 01:41:17;;;;;;;1999.90;999.90;;;9.70;99.90;;;;;;5031679;28;20122;-74
2023/04/01 01:43:48;;;;;;;1999.90;999.90;;;9.70;99.90;;;;;;5016286;28;20030;-74
2023/04/01 01:46:19;;;;;;;1999.90;999.90;;;9.60;99.90;;;;;;5016220;28;20049;-74
2023/04/01 01:48:47;;;;;;;1999.90;999.90;;;9.60;99.90;;;;;;5021425;28;20030;-74
2023/04/01 01:51:13;;;;;;;1999.90;999.90;;;9.60;99.90;;;;;;5017047;28;20555;-74
2023/04/01 01:53:38;;;;;;;1999.90;999.90;;;9.50;99.90;;;;;;5031188;28;20145;-74
2023/04/01 01:56:04;;;;;;;1999.90;999.90;;;9.50;99.90;;;;;;5014742;28;20034;-74
2023/04/01 01:58:40;;;;;;;1999.90;999.90;;;9.60;99.90;;;;;;5015840;28;20065;-74
2023/04/01 02:01:10;;;;;;;1999.90;999.90;;;9.60;99.90;;;;;;5016785;28;20038;-74
2023/04/01 02:03:39;;;;;;;1999.90;999.90;;;9.60;99.90;;;;;;5016398;28;20035;-74
2023/04/01 02:06:07;;;;;;;1999.90;999.90;;;9.60;99.90;;;;;;5015910;28;20089;-74
2023/04/01 02:08:33;;;;;;;1999.90;999.90;;;9.80;99.90;;;;;;5015770;28;20035;-74
2023/04/01 02:11:10;;;;;;;1999.90;999.90;;;9.70;99.90;;;;;;5016389;28;20753;-74
2023/04/01 02:13:56;;;;;;;1999.90;999.90;;;9.70;99.90;;;;;;5014661;28;20093;-75
2023/04/01 02:16:34;;;;;;;1999.90;999.90;;;9.70;99.90;;;;;;5015749;28;20082;-74
2023/04/01 02:19:06;;;;;;;1999.90;999.90;;;9.60;99.90;;;;;;5016050;28;20038;-74
2023/04/01 02:21:33;;;;;;;1999.90;999.90;;;9.70;99.90;;;;;;5015589;28;20030;-74
2023/04/01 02:24:01;;;;;;;1999.90;999.90;;;9.70;99.90;;;;;;5015667;28;20031;-74
2023/04/01 02:26:27;;;;;;;1999.90;999.90;;;9.70;99.90;;;;;;5014422;28;20038;-74
2023/04/01 02:28:54;;;;;;;1999.90;999.90;;;9.60;99.90;;;;;;5015796;28;20030;-74
2023/04/01 02:31:21;;;;;;;1999.90;999.90;;;9.60;99.90;;;;;;5015678;28;20365;-75
2023/04/01 02:33:48;;;;;;;1999.90;999.90;;;9.60;99.90;;;;;;5015539;28;20042;-75
2023/04/01 02:36:15;;;;;;;1999.90;999.90;;;9.60;99.90;;;;;;5015715;28;20509;-75
2023/04/01 02:38:44;;;;;;;1999.90;999.90;;;9.60;99.90;;;;;;5029826;22;20066;-77
2023/04/01 02:41:10;;;;;;;1999.90;999.90;;;9.50;99.90;;;;;;5030932;28;20046;-77
2023/04/01 02:43:35;;;;;;;1999.90;999.90;;;9.50;99.90;;;;;;5030480;28;20031;-77
2023/04/01 02:46:01;;;;;;;1999.90;999.90;;;9.50;99.90;;;;;;5015263;28;20512;-77
2023/04/01 02:48:27;;;;;;;1999.90;999.90;;;9.60;99.90;;;;;;5030155;28;20076;-77
2023/04/01 02:50:54;;;;;;;1999.90;999.90;;;9.60;99.90;;;;;;5014005;28;20088;-77
2023/04/01 02:53:19;;;;;;;1999.90;999.90;;;9.80;99.90;;;;;;5015374;28;20122;-77
2023/04/01 02:55:45;;;;;;;1999.90;999.90;;;9.70;99.90;;;;;;5013566;28;20608;-77
2023/04/01 02:58:11;;;;;;;1999.90;999.90;;;9.80;99.90;;;;;;5015263;28;20037;-77
2023/04/01 03:00:37;;;;;;;1999.90;999.90;;;9.80;99.90;;;;;;5015384;28;20114;-77
2023/04/01 03:03:03;;;;;;;1999.90;999.90;;;9.70;99.90;;;;;;5013845;28;20062;-77
2023/04/01 03:05:29;;;;;;;1999.90;999.90;;;9.80;99.90;;;;;;5014981;28;20117;-77
2023/04/01 03:07:55;;;;;;;1999.90;999.90;;;9.80;99.90;;;;;;5015215;28;20030;-77
2023/04/01 03:10:20;;;;;;;1999.90;999.90;;;9.80;99.90;;;;;;5015179;28;20041;-77
2023/04/01 03:12:46;;;;;;;1999.90;999.90;;;9.70;99.90;;;;;;5013636;28;20130;-77
2023/04/01 03:15:14;;;;;;;1999.90;999.90;;;9.70;99.90;;;;;;5014953;28;20411;-77
2023/04/01 03:17:40;;;;;;;1999.90;999.90;;;9.70;99.90;;;;;;5013307;28;20471;-77
2023/04/01 03:20:08;;;;;;;1999.90;999.90;;;9.70;99.90;;;;;;5016277;28;20048;-77
2023/04/01 03:22:34;;;;;;;1999.90;999.90;;;9.80;99.90;;;;;;5015397;28;20030;-77
2023/04/01 03:24:59;;;;;;;1999.90;999.90;;;9.70;99.90;;;;;;5016140;28;20507;-77
2023/04/01 03:27:25;;;;;;;1999.90;999.90;;;9.70;99.90;;;;;;5013539;28;20030;-77
2023/04/01 03:29:50;;;;;;;1999.90;999.90;;;9.70;99.90;;;;;;5014992;28;20554;-76
2023/04/01 03:32:16;;;;;;;1999.90;999.90;;;9.70;99.90;;;;;;5014973;28;20034;-77
2023/04/01 03:34:42;;;;;;;1999.90;999.90;;;9.70;99.90;;;;;;5014832;28;20034;-77
2023/04/01 03:37:07;;;;;;;1999.90;999.90;;;9.60;99.90;;;;;;5013525;28;20070;-78
2023/04/01 03:39:33;;;;;;;1999.90;999.90;;;9.60;99.90;;;;;;5013324;28;20073;-77
2023/04/01 03:41:59;;;;;;;1999.90;999.90;;;9.70;99.90;;;;;;5014916;28;20069;-77
2023/04/01 03:44:24;;;;;;;1999.90;999.90;;;9.60;99.90;;;;;;5014392;28;20043;-77
2023/04/01 03:46:50;;;;;;;1999.90;999.90;;;9.60;99.90;;;;;;5014818;28;20037;-77
2023/04/01 03:49:15;;;;;;;1999.90;999.90;;;9.70;99.90;;;;;;5014578;28;20031;-77
2023/04/01 03:51:42;;;;;;;1999.90;999.90;;;9.70;99.90;;;;;;5019188;28;20038;-77
2023/04/01 03:54:10;;;;;;;1999.90;999.90;;;9.70;99.90;;;;;;5020891;28;20061;-77
2023/04/01 03:56:35;;;;;;;1999.90;999.90;;;9.80;99.90;;;;;;5019822;28;20493;-77
2023/04/01 03:59:06;;;;;;;1999.90;999.90;;;9.80;99.90;;;;;;5021320;28;20088;-77
2023/04/01 04:01:32;;;;;;;1999.90;999.90;;;9.80;99.90;;;;;;5019879;28;20038;-77
2023/04/01 04:03:59;;;;;;;1999.90;999.90;;;9.90;99.90;;;;;;5020458;28;20042;-77
2023/04/01 04:06:25;;;;;;;1999.90;999.90;;;9.90;99.90;;;;;;5021061;28;20050;-77
2023/04/01 04:08:50;;;;;;;1999.90;999.90;;;9.90;99.90;;;;;;5019276;28;20030;-78
2023/04/01 04:11:16;;;;;;;1999.90;999.90;;;9.80;99.90;;;;;;5021121;28;20509;-77
2023/04/01 04:13:43;;;;;;;1999.90;999.90;;;9.80;99.90;;;;;;5020911;28;20565;-77
2023/04/01 04:16:09;;;;;;;1999.90;999.90;;;9.80;99.90;;;;;;5020699;28;20035;-77
2023/04/01 04:18:36;;;;;;;1999.90;999.90;;;9.70;99.90;;;;;;5035793;28;20058;-77
2023/04/01 04:21:03;;;;;;;1999.90;999.90;;;9.70;99.90;;;;;;5020187;28;20526;-77
2023/04/01 04:23:30;;;;;;;1999.90;999.90;;;9.70;99.90;;;;;;5020340;28;20559;-77
2023/04/01 04:26:09;;;;;;;1999.90;999.90;;;9.70;99.90;;;;;;5020442;28;20031;-77
2023/04/01 04:28:35;;;;;;;1999.90;999.90;;;9.70;99.90;;;;;;5020403;28;20528;-77
2023/04/01 04:31:01;;;;;;;1999.90;999.90;;;9.70;99.90;;;;;;5035274;28;20045;-77
2023/04/01 04:33:27;;;;;;;1999.90;999.90;;;9.60;99.90;;;;;;5020723;28;20102;-77
2023/04/01 04:35:56;;;;;;;1999.90;999.90;;;9.60;99.90;;;;;;5020472;28;20045;-77
2023/04/01 04:38:22;;;;;;;1999.90;999.90;;;9.60;99.90;;;;;;5019799;28;20184;-77
2023/04/01 04:40:47;;;;;;;1999.90;999.90;;;9.70;99.90;;;;;;5019198;28;20134;-78
2023/04/01 04:43:15;;;;;;;1999.90;999.90;;;9.70;99.90;;;;;;5020617;28;20035;-77
2023/04/01 04:45:41;;;;;;;1999.90;999.90;;;9.70;99.90;;;;;;5019948;28;20515;-77
2023/04/01 04:48:15;;;;;;;1999.90;999.90;;;9.70;99.90;;;;;;5018860;28;20038;-77
2023/04/01 04:50:42;;;;;;;1999.90;999.90;;;9.70;99.90;;;;;;5020668;28;20034;-77
2023/04/01 04:53:10;;;;;;;1999.90;999.90;;;9.60;99.90;;;;;;5018939;28;20432;-77
2023/04/01 04:55:35;;;;;;;1999.90;999.90;;;9.70;99.90;;;;;;5018694;28;20075;-77
2023/04/01 04:58:01;;;;;;;1999.90;999.90;;;9.60;99.90;;;;;;5019062;28;20048;-77
2023/04/01 05:00:27;;;;;;;1999.90;999.90;;;9.60;99.90;;;;;;5020423;28;20039;-77
2023/04/01 05:02:52;;;;;;;1999.90;999.90;;;9.60;99.90;;;;;;5015538;28;20030;-77
2023/04/01 05:05:18;;;;;;;1999.90;999.90;;;9.60;99.90;;;;;;5016815;28;20045;-77
2023/04/01 05:07:44;;;;;;;1999.90;999.90;;;9.70;99.90;;;;;;5016622;28;20063;-77
2023/04/01 05:10:10;;;;;;;1999.90;999.90;;;9.60;99.90;;;;;;5015518;28;20038;-77
2023/04/01 05:12:38;;;;;;;1999.90;999.90;;;9.60;99.90;;;;;;5016996;28;20085;-77
2023/04/01 05:15:08;;;;;;;1999.90;999.90;;;9.70;99.90;;;;;;5016555;28;20034;-77
2023/04/01 05:17:33;;;;;;;1999.90;999.90;;;9.70;99.90;;;;;;5015174;28;20444;-77
2023/04/01 05:19:59;;;;;;;1999.90;999.90;;;9.70;99.90;;;;;;5015331;28;20125;-77
2023/04/01 05:22:25;;;;;;;1999.90;999.90;;;9.70;99.90;;;;;;5014717;28;20034;-77
2023/04/01 05:24:50;;;;;;;1999.90;999.90;;;9.60;99.90;;;;;;5016433;28;20030;-77
2023/04/01 05:27:16;;;;;;;1999.90;999.90;;;9.60;99.90;;;;;;5016783;28;20388;-77
2023/04/01 05:29:42;;;;;;;1999.90;999.90;;;9.70;99.90;;;;;;5016592;28;20034;-77
2023/04/01 05:32:07;;;;;;;1999.90;999.90;;;9.80;99.90;;;;;;5016423;28;20069;-77
2023/04/01 05:34:33;;;;;;;1999.90;999.90;;;9.80;99.90;;;;;;5016421;28;20113;-77
2023/04/01 05:36:58;;;;;;;1999.90;999.90;;;9.80;99.90;;;;;;5014922;28;20038;-77
2023/04/01 05:39:24;;;;;;;1999.90;999.90;;;9.80;99.90;;;;;;5016137;28;20062;-77
2023/04/01 05:41:49;;;;;;;1999.90;999.90;;;9.90;99.90;;;;;;5016514;28;20101;-77
2023/04/01 05:44:15;;;;;;;1999.90;999.90;;;9.90;99.90;;;;;;5016124;28;20042;-77
2023/04/01 05:46:41;;;;;;;1999.90;999.90;;;10.00;99.90;;;;;;5016653;28;20341;-77
2023/04/01 05:49:07;;;;;;;1999.90;999.90;;;10.00;99.90;;;;;;5015099;28;20034;-77
2023/04/01 05:51:32;;;;;;;1999.90;999.90;;;10.00;99.90;;;;;;5016660;28;20031;-77
2023/04/01 05:53:58;;;;;;;1999.90;999.90;;;10.00;99.90;;;;;;5016198;28;20039;-77
2023/04/01 05:56:23;;;;;;;1999.90;999.90;;;10.00;99.90;;;;;;5014863;28;20038;-77
2023/04/01 05:58:51;;;;;;;1999.90;999.90;;;10.00;99.90;;;;;;5016141;28;20053;-78
2023/04/01 06:01:18;;;;;;;1999.90;999.90;;;9.90;99.90;;;;;;5016233;28;20061;-78
2023/04/01 06:03:44;;;;;;;1999.90;999.90;;;9.80;99.90;;;;;;5016309;28;20030;-77
2023/04/01 06:06:15;;;;;;;1999.90;999.90;;;9.80;99.90;;;;;;5016066;28;20042;-78
2023/04/01 06:08:41;;;;;;;1999.90;999.90;;;9.80;99.90;;;;;;5014535;28;20034;-78
2023/04/01 06:11:34;;;;;;;1999.90;999.90;;;9.80;99.90;;;;;;5014933;28;20030;-78
2023/04/01 06:14:16;;;;;;;1999.90;999.90;;;9.70;99.90;;;;;;5015494;28;20056;-78
2023/04/01 06:16:54;;;;;;;1999.90;999.90;;;9.60;99.90;;;;;;5016605;28;20792;-78
2023/04/01 06:19:31;;;;;;;1999.90;999.90;;;9.60;99.90;;;;;;5015764;28;20157;-78
2023/04/01 06:22:29;;;;;;;1999.90;999.90;;;9.60;99.90;;;;;;5015564;28;20035;-78
2023/04/01 06:25:14;;;;;;;1999.90;999.90;;;9.60;99.90;;;;;;5014338;28;20043;-78
2023/04/01 06:28:13;;;;;;;1999.90;999.90;;;9.60;99.90;;;;;;5015784;28;20065;-77
2023/04/01 06:30:55;;;;;;;1999.90;999.90;;;9.50;99.90;;;;;;5015914;28;20117;-78
2023/04/01 06:33:32;;;;;;;1999.90;999.90;;;9.60;99.90;;;;;;5015826;28;20027;-78
2023/04/01 06:36:19;;;;;;;1999.90;999.90;;;9.60;99.90;;;;;;4996183;28;20039;-78
2023/04/01 06:38:58;;;;;;;1999.90;999.90;;;9.60;99.90;;;;;;4995892;28;20416;-77
2023/04/01 06:42:01;;;;;;;1999.90;999.90;;;9.60;99.90;;;;;;4997595;28;20034;-79
2023/04/01 06:44:53;;;;;;;1999.90;999.90;;;9.70;99.90;;;;;;5011724;28;20134;-80
2023/04/01 06:47:25;;;;;;;1999.90;999.90;;;9.80;99.90;;;;;;5011445;28;20755;-80
2023/04/01 06:50:15;;;;;;;1999.90;999.90;;;9.90;99.90;;;;;;5011784;28;20035;-80
2023/04/01 06:52:53;;;;;;;1999.90;999.90;;;10.00;99.90;;;;;;4994869;28;20046;-78
2023/04/01 06:55:37;;;;;;;1999.90;999.90;;;10.10;99.90;;;;;;4995809;28;20042;-76
2023/04/01 06:58:05;;;;;;;1999.90;999.90;;;10.10;99.90;;;;;;4994588;28;20031;-77
2023/04/01 07:00:42;;;;;;;1999.90;999.90;;;10.10;99.90;;;;;;4995904;28;20125;-77
2023/04/01 07:03:35;;;;;;;1999.90;999.90;;;10.10;99.90;;;;;;4996025;28;20444;-76
2023/04/01 07:06:08;;;;;;;1999.90;999.90;;;10.20;99.90;;;;;;5012002;28;20053;-78
2023/04/01 07:08:40;;;;;;;1999.90;999.90;;;10.20;99.90;;;;;;4996660;28;20027;-78
2023/04/01 07:11:26;;;;;;;1999.90;999.90;;;10.20;99.90;;;;;;4996076;28;20117;-77
2023/04/01 07:13:54;;;;;;;1999.90;999.90;;;10.30;99.90;;;;;;4995912;28;20039;-77
2023/04/01 07:16:30;;;;;;;1999.90;999.90;;;10.20;99.90;;;;;;4995024;28;20089;-77
2023/04/01 07:19:31;;;;;;;1999.90;999.90;;;10.40;99.90;;;;;;5010071;28;20126;-77
2023/04/01 07:22:04;;;;;;;1999.90;999.90;;;10.40;99.90;;;;;;4995264;28;20066;-77
2023/04/01 07:24:36;;;;;;;1999.90;999.90;;;10.40;99.90;;;;;;4995154;28;20408;-77
2023/04/01 07:27:02;;;;;;;1999.90;999.90;;;10.50;99.90;;;;;;4994598;28;20468;-77
2023/04/01 07:29:28;;;;;;;1999.90;999.90;;;10.50;99.90;;;;;;5013924;28;20038;-76
2023/04/01 07:32:10;;;;;;;1999.90;999.90;;;10.50;99.90;;;;;;5014547;28;20034;-79
2023/04/01 07:34:54;;;;;;;1999.90;999.90;;;10.50;99.90;;;;;;5010965;28;20043;-79
2023/04/01 07:37:29;;;;;;;1999.90;999.90;;;10.50;99.90;;;;;;4995521;28;20057;-75
2023/04/01 07:40:32;;;;;;;1999.90;999.90;;;10.60;99.90;;;;;;5020058;28;20038;-76
2023/04/01 07:43:24;;;;;;;1999.90;999.90;;;10.70;99.90;;;;;;5035449;28;20077;-77
2023/04/01 07:45:53;;;;;;;1999.90;999.90;;;10.60;99.90;;;;;;5021470;28;20051;-76
2023/04/01 07:48:44;;;;;;;1999.90;999.90;;;10.60;99.90;;;;;;5029652;28;20837;-81
2023/04/01 07:51:40;;;;;;;1999.90;999.90;;;10.50;99.90;;;;;;5008428;28;20058;-78
2023/04/01 07:54:36;;;;;;;1999.90;999.90;;;10.50;99.90;;;;;;5035733;28;20029;-77
2023/04/01 07:57:22;;;;;;;1999.90;999.90;;;10.50;99.90;;;;;;5031471;28;20137;-77
2023/04/01 08:00:07;;;;;;;1999.90;999.90;;;10.50;99.90;;;;;;5010255;28;20043;-77
2023/04/01 08:02:54;;;;;;;1999.90;999.90;;;10.40;99.90;;;;;;5016072;28;20508;-77
2023/04/01 08:05:27;;;;;;;1999.90;999.90;;;10.40;99.90;;;;;;5015502;28;20066;-80
2023/04/01 08:08:19;;;;;;;1999.90;999.90;;;10.40;99.90;;;;;;5015450;28;20026;-79
2023/04/01 08:11:06;;;;;;;1999.90;999.90;;;10.30;99.90;;;;;;5014256;28;20121;-80
2023/04/01 08:13:56;;;;;;;1999.90;999.90;;;10.30;99.90;;;;;;4995403;28;20035;-79
2023/04/01 08:16:52;;;;;;;1999.90;999.90;;;10.20;99.90;;;;;;5010459;28;20035;-77
2023/04/01 08:19:49;;;;;;;1999.90;999.90;;;10.10;99.90;;;;;;5015180;28;20046;-79
2023/04/01 08:22:37;;;;;;;1999.90;999.90;;;10.20;99.90;;;;;;5029931;28;20527;-78
2023/04/01 08:25:07;;;;;;;1999.90;999.90;;;10.10;99.90;;;;;;5025180;28;20054;-79
2023/04/01 08:27:45;;;;;;;1999.90;999.90;;;10.10;99.90;;;;;;5025759;28;20464;-77
2023/04/01 08:30:28;;;;;;;1999.90;999.90;;;9.90;99.90;;;;;;5012046;28;20061;-77
2023/04/01 08:32:59;;;;;;;1999.90;999.90;;;9.50;99.90;;;;;;5012663;28;20031;-77
2023/04/01 08:35:32;;;;;;;1999.90;999.90;;;9.20;99.90;;;;;;5013510;28;20033;-76
2023/04/01 08:40:50;;;;;;;1999.90;999.90;;;9.00;99.90;;;;;;5014761;28;20055;-75
2023/04/01 08:43:33;;;;;;;1999.90;999.90;;;9.00;99.90;;;;;;5017329;28;20068;-73
2023/04/01 08:46:29;;;;;;;1999.90;999.90;;;9.10;99.90;;;;;;5015525;28;20868;-73
2023/04/01 08:49:22;;;;;;;1999.90;999.90;;;9.30;99.90;;;;;;5031317;28;20070;-75
2023/04/01 08:52:15;;;;;;;1999.90;999.90;;;9.40;99.90;;;;;;5016258;28;20046;-76
2023/04/01 08:54:49;;;;;;;1999.90;999.90;;;9.30;99.90;;;;;;5017322;28;20504;-75
2023/04/01 08:57:32;;;;;;;1999.90;999.90;;;9.20;99.90;;;;;;5017324;28;20042;-75
2023/04/01 09:00:29;;;;;;;1999.90;999.90;;;9.10;99.90;;;;;;5015892;28;20627;-76
2023/04/01 09:03:12;;;;;;;1999.90;999.90;;;9.20;99.90;;;;;;5015815;28;20049;-78
2023/04/01 09:05:53;;;;;;;1999.90;999.90;;;9.20;99.90;;;;;;5016980;28;20125;-76
2023/04/01 09:08:41;;;;;;;1999.90;999.90;;;9.20;99.90;;;;;;5012494;28;20035;-75
2023/04/01 09:11:15;;;;;;;1999.90;999.90;;;9.40;99.90;;;;;;4997087;28;20039;-75
2023/04/01 09:13:50;;;;;;;1999.90;999.90;;;9.50;99.90;;;;;;5015835;28;20118;-75
2023/04/01 09:16:49;;;;;;;1999.90;999.90;;;9.60;99.90;;;;;;5016949;28;20073;-76
2023/04/01 09:19:41;;;;;;;1999.90;999.90;;;9.80;99.90;;;;;;5017294;28;20039;-77
2023/04/01 09:22:29;;;;;;;1999.90;999.90;;;9.80;99.90;;;;;;5017798;28;20038;-75
2023/04/01 09:25:21;;;;;;;1999.90;999.90;;;10.00;99.90;;;;;;5023546;28;20049;-77
2023/04/01 09:28:10;;;;;;;1999.90;999.90;;;10.00;99.90;;;;;;5017317;28;20034;-76
2023/04/01 09:30:54;;;;;;;1999.90;999.90;;;10.00;99.90;;;;;;5008914;28;20038;-78
2023/04/01 09:33:56;;;;;;;1999.90;999.90;;;10.10;99.90;;;;;;5016534;28;20543;-76
2023/04/01 09:36:30;;;;;;;1999.90;999.90;;;9.90;99.90;;;;;;5016557;28;20050;-76
2023/04/01 09:39:15;;;;;;;1999.90;999.90;;;10.00;99.90;;;;;;5016130;28;20030;-76
2023/04/01 09:42:20;;;;;;;1999.90;999.90;;;9.90;99.90;;;;;;5019066;28;20050;-80
2023/04/01 09:44:58;;;;;;;1999.90;999.90;;;9.80;99.90;;;;;;5015113;28;20074;-76
2023/04/01 09:48:01;;;;;;;1999.90;999.90;;;9.80;99.90;;;;;;5015133;28;20039;-76
2023/04/01 09:50:53;;;;;;;1999.90;999.90;;;9.70;99.90;;;;;;5015864;28;20034;-76
2023/04/01 09:53:41;;;;;;;1999.90;999.90;;;9.80;99.90;;;;;;5016189;28;20042;-76
2023/04/01 09:56:43;;;;;;;1999.90;999.90;;;9.80;99.90;;;;;;5016625;28;20041;-76
2023/04/01 09:59:21;;;;;;;1999.90;999.90;;;9.80;99.90;;;;;;5017439;28;20034;-77
2023/04/01 10:01:55;;;;;;;1999.90;999.90;;;9.80;99.90;;;;;;5016546;28;20516;-77
2023/04/01 10:04:54;;;;;;;1999.90;999.90;;;9.80;99.90;;;;;;5016013;28;20030;-76
2023/04/01 10:08:01;;;;;;;1999.90;999.90;;;9.70;99.90;;;;;;5016396;28;20035;-76
2023/04/01 10:10:35;;;;;;;1999.90;999.90;;;9.70;99.90;;;;;;5016209;28;20121;-76
2023/04/01 10:13:31;;;;;;;1999.90;999.90;;;9.70;99.90;;;;;;5014615;28;20102;-76
2023/04/01 10:16:23;;;;;;;1999.90;999.90;;;9.70;99.90;;;;;;5016248;28;20030;-76
2023/04/01 10:19:20;;;;;;;1999.90;999.90;;;9.70;99.90;;;;;;5011007;28;20138;-75
2023/04/01 10:21:59;;;;;;;1999.90;999.90;;;9.80;99.90;;;;;;5016299;28;20038;-76
2023/04/01 10:25:12;;;;;;;1999.90;999.90;;;9.80;99.90;;;;;;5015899;28;20027;-75
2023/04/01 10:27:58;;;;;;;1999.90;999.90;;;9.80;99.90;;;;;;4993513;28;20039;-75
2023/04/01 10:30:26;;;;;;;1999.90;999.90;;;9.80;99.90;;;;;;4993933;28;20045;-76
2023/04/01 10:33:06;;;;;;;1999.90;999.90;;;9.80;99.90;;;;;;5006793;28;20054;-76
2023/04/01 10:36:06;;;;;;;1999.90;999.90;;;9.80;99.90;;;;;;5015550;28;20041;-76
2023/04/01 10:39:09;;;;;;;1999.90;999.90;;;9.90;99.90;;;;;;4995327;28;20046;-76
2023/04/01 10:41:53;;;;;;;1999.90;999.90;;;9.90;99.90;;;;;;4995771;28;20035;-76
2023/04/01 10:45:16;;;;;;;1999.90;999.90;;;9.70;99.90;;;;;;4995460;28;20559;-76
2023/04/01 10:48:03;;;;;;;1999.90;999.90;;;9.70;99.90;;;;;;4973277;28;20052;-76
2023/04/01 10:50:53;;;;;;;1999.90;999.90;;;9.60;99.90;;;;;;4973942;28;20032;-76
2023/04/01 10:54:06;;;;;;;1999.90;999.90;;;9.60;99.90;;;;;;4990611;28;20043;-76
2023/04/01 10:56:56;;;;;;;1999.90;999.90;;;9.50;99.90;;;;;;4978676;28;20500;-76
2023/04/01 10:59:35;;;;;;;1999.90;999.90;;;9.50;99.90;;;;;;4995406;28;20098;-76
2023/04/01 11:02:01;;;;;;;1999.90;999.90;;;9.50;99.90;;;;;;4994853;28;20118;-76
2023/04/01 11:04:55;;;;;;;1999.90;999.90;;;9.50;99.90;;;;;;5010201;28;20133;-76
2023/04/01 11:07:49;;;;;;;1999.90;999.90;;;9.50;99.90;;;;;;5010373;28;20091;-76
2023/04/01 11:10:36;;;;;;;1999.90;999.90;;;9.50;99.90;;;;;;4995390;28;20161;-76
2023/04/01 11:13:45;;;;;;;1999.90;999.90;;;9.50;99.90;;;;;;4995530;28;20134;-76
2023/04/01 11:16:28;;;;;;;1999.90;999.90;;;9.50;99.90;;;;;;4984803;28;20035;-76
2023/04/01 11:19:11;;;;;;;1999.90;999.90;;;9.60;99.90;;;;;;4995217;28;20504;-76
2023/04/01 11:21:59;;;;;;;1999.90;999.90;;;9.60;99.90;;;;;;4995371;28;20533;-76
2023/04/01 11:25:08;;;;;;;1999.90;999.90;;;9.50;99.90;;;;;;4995930;28;20045;-77
2023/04/01 11:27:46;;;;;;;1999.90;999.90;;;9.50;99.90;;;;;;5014886;28;20062;-77
2023/04/01 11:30:26;;;;;;;1999.90;999.90;;;9.40;99.90;;;;;;5015255;28;20035;-79
2023/04/01 11:33:09;;;;;;;1999.90;999.90;;;9.40;99.90;;;;;;5015733;28;20038;-76
2023/04/01 11:35:49;;;;;;;1999.90;999.90;;;9.40;99.90;;;;;;5023416;28;20752;-77
2023/04/01 11:38:34;;;;;;;1999.90;999.90;;;9.40;99.90;;;;;;5015488;28;20038;-84
2023/04/01 11:41:15;;;;;;;1999.90;999.90;;;9.50;99.90;;;;;;5016667;28;20790;-81
2023/04/01 11:44:07;;;;;;;1999.90;999.90;;;9.50;99.90;;;;;;5016353;28;20475;-78
2023/04/01 11:46:51;;;;;;;1999.90;999.90;;;9.50;99.90;;;;;;5014688;28;20038;-76
2023/04/01 11:49:20;;;;;;;1999.90;999.90;;;9.60;99.90;;;;;;5015779;28;20081;-80
2023/04/01 11:52:13;;;;;;;1999.90;999.90;;;9.40;99.90;;;;;;5013582;28;20043;-77
2023/04/01 11:55:10;;;;;;;1999.90;999.90;;;9.40;99.90;;;;;;4995121;28;20469;-78
2023/04/01 11:57:53;;;;;;;1999.90;999.90;;;9.50;99.90;;;;;;4986649;28;20047;-78
2023/04/01 12:00:29;;;;;;;1999.90;999.90;;;9.50;99.90;;;;;;4995627;28;20035;-76
2023/04/01 12:02:57;;;;;;;1999.90;999.90;;;9.50;99.90;;;;;;4999035;28;20039;-78
2023/04/01 12:05:44;;;;;;;1999.90;999.90;;;9.50;99.90;;;;;;5015217;28;20113;-77
2023/04/01 12:08:46;;;;;;;1999.90;999.90;;;9.50;99.90;;;;;;5015048;28;20067;-77
2023/04/01 12:11:22;;;;;;;1999.90;999.90;;;9.60;99.90;;;;;;5014798;28;20118;-77
2023/04/01 12:14:02;;;;;;;1999.90;999.90;;;9.60;99.90;;;;;;5018578;28;20121;-78
2023/04/01 12:16:49;;;;;;;1999.90;999.90;;;9.60;99.90;;;;;;5017768;28;20467;-80
2023/04/01 12:19:44;;;;;;;1999.90;999.90;;;9.60;99.90;;;;;;5018713;28;20090;-76
2023/04/01 12:22:19;;;;;;;1999.90;999.90;;;9.60;99.90;;;;;;5018179;28;20038;-77
2023/04/01 12:24:49;;;;;;;1999.90;999.90;;;9.70;99.90;;;;;;5013298;28;20129;-78
2023/04/01 12:27:15;;;;;;;1999.90;999.90;;;9.80;99.90;;;;;;4998104;28;20034;-76
2023/04/01 12:30:01;;;;;;;1999.90;999.90;;;9.80;99.90;;;;;;4998374;28;20118;-79
2023/04/01 12:32:45;;;;;;;1999.90;999.90;;;9.80;99.90;;;;;;4998881;28;20038;-78
2023/04/01 12:35:37;;;;;;;1999.90;999.90;;;9.90;99.90;;;;;;4997686;28;20047;-81
2023/04/01 12:38:24;;;;;;;1999.90;999.90;;;10.00;99.90;;;;;;4998758;28;20026;-79
2023/04/01 12:41:38;;;;;;;1999.90;999.90;;;10.20;99.90;;;;;;4999687;28;21151;-82
2023/04/01 12:44:42;;;;;;;1999.90;999.90;;;10.20;99.90;;;;;;5006291;28;20138;-78
2023/04/01 12:47:41;;;;;;;1999.90;999.90;;;10.20;99.90;;;;;;4992571;28;20047;-76
2023/04/01 12:50:42;;;;;;;1999.90;999.90;;;10.10;99.90;;;;;;5006186;28;20472;-76
2023/04/01 12:53:22;;;;;;;1999.90;999.90;;;10.10;99.90;;;;;;5017643;28;20470;-76
2023/04/01 12:55:52;;;;;;;1999.90;999.90;;;10.10;99.90;;;;;;5018129;28;20034;-78